sensor_id;sensor_type;location;lat;lon;timestamp;pressure;altitude;pressure_sealevel;temperature;humidity
12676;BME280;63820;65.654;21.944;2022-11-14T00:01:36;102468.72;;;-5.32;100.00
12676;BME280;63820;65.654;21.944;2022-11-14T00:04:20;102459.19;;;-5.36;100.00
12676;BME280;63820;65.654;21.944;2022-11-14T00:07:04;102461.81;;;-5.34;100.00
12676;BME280;63820;65.654;21.944;2022-11-14T00:09:48;102468.47;;;-5.36;100.00
12676;BME280;63820;65.654;21.944;2022-11-14T00:12:32;102468.72;;;-5.32;100.00
12676;BME280;63820;65.654;21.944;2022-11-14T00:15:16;102458.72;;;-5.29;100.00
12676;BME280;63820;65.654;21.944;2022-11-14T00:18:00;102462.28;;;-5.25;100.00
12676;BME280;63820;65.654;21.944;2022-11-14T00:20:49;102457.22;;;-5.25;100.00
12676;BME280;63820;65.654;21.944;2022-11-14T00:23:34;102460.63;;;-5.24;100.00
12676;BME280;63820;65.654;21.944;2022-11-14T00:26:17;102445.25;;;-5.28;100.00
12676;BME280;63820;65.654;21.944;2022-11-14T00:29:02;102448.41;;;-5.32;100.00
12676;BME280;63820;65.654;21.944;2022-11-14T00:31:46;102438.34;;;-5.30;100.00
12676;BME280;63820;65.654;21.944;2022-11-14T00:34:30;102434.00;;;-5.33;100.00
12676;BME280;63820;65.654;21.944;2022-11-14T00:37:14;102429.88;;;-5.31;100.00
12676;BME280;63820;65.654;21.944;2022-11-14T00:39:58;102430.75;;;-5.30;100.00
12676;BME280;63820;65.654;21.944;2022-11-14T00:42:42;102425.91;;;-5.25;100.00
12676;BME280;63820;65.654;21.944;2022-11-14T00:45:26;102425.91;;;-5.25;100.00
12676;BME280;63820;65.654;21.944;2022-11-14T00:48:10;102420.34;;;-5.18;100.00
12676;BME280;63820;65.654;21.944;2022-11-14T00:50:54;102422.00;;;-5.19;100.00
12676;BME280;63820;65.654;21.944;2022-11-14T00:53:38;102413.38;;;-5.22;100.00
12676;BME280;63820;65.654;21.944;2022-11-14T00:56:22;102418.59;;;-5.19;100.00
12676;BME280;63820;65.654;21.944;2022-11-14T00:59:06;102414.03;;;-5.27;100.00
12676;BME280;63820;65.654;21.944;2022-11-14T01:01:50;102408.72;;;-5.31;100.00
12676;BME280;63820;65.654;21.944;2022-11-14T01:04:34;102409.09;;;-5.40;100.00
12676;BME280;63820;65.654;21.944;2022-11-14T01:07:18;102401.16;;;-5.46;100.00
12676;BME280;63820;65.654;21.944;2022-11-14T01:10:03;102396.47;;;-5.54;100.00
12676;BME280;63820;65.654;21.944;2022-11-14T01:12:48;102389.97;;;-5.66;100.00
12676;BME280;63820;65.654;21.944;2022-11-14T01:15:32;102401.94;;;-5.63;100.00
12676;BME280;63820;65.654;21.944;2022-11-14T01:18:18;102401.69;;;-5.68;100.00
12676;BME280;63820;65.654;21.944;2022-11-14T01:21:05;102396.22;;;-5.75;100.00
12676;BME280;63820;65.654;21.944;2022-11-14T01:23:49;102401.03;;;-5.80;100.00
12676;BME280;63820;65.654;21.944;2022-11-14T01:26:33;102393.34;;;-5.81;100.00
12676;BME280;63820;65.654;21.944;2022-11-14T01:29:17;102394.44;;;-5.93;100.00
12676;BME280;63820;65.654;21.944;2022-11-14T01:32:01;102395.06;;;-5.97;100.00
12676;BME280;63820;65.654;21.944;2022-11-14T01:34:45;102391.25;;;-5.88;100.00
12676;BME280;63820;65.654;21.944;2022-11-14T01:37:29;102386.38;;;-5.85;100.00
12676;BME280;63820;65.654;21.944;2022-11-14T01:40:13;102385.50;;;-5.86;100.00
12676;BME280;63820;65.654;21.944;2022-11-14T01:46:03;102384.25;;;-5.78;100.00
12676;BME280;63820;65.654;21.944;2022-11-14T01:48:51;102375.13;;;-5.74;100.00
12676;BME280;63820;65.654;21.944;2022-11-14T01:54:24;102375.94;;;-5.75;100.00
12676;BME280;63820;65.654;21.944;2022-11-14T01:57:11;102376.88;;;-5.73;100.00
12676;BME280;63820;65.654;21.944;2022-11-14T02:00:00;102376.72;;;-5.76;100.00
12676;BME280;63820;65.654;21.944;2022-11-14T02:02:46;102379.41;;;-5.89;100.00
12676;BME280;63820;65.654;21.944;2022-11-14T02:05:31;102370.34;;;-6.01;100.00
12676;BME280;63820;65.654;21.944;2022-11-14T02:08:16;102377.88;;;-6.02;100.00
12676;BME280;63820;65.654;21.944;2022-11-14T02:11:01;102377.16;;;-6.00;100.00
12676;BME280;63820;65.654;21.944;2022-11-14T02:13:45;102379.09;;;-5.96;100.00
12676;BME280;63820;65.654;21.944;2022-11-14T02:16:29;102375.06;;;-5.92;100.00
12676;BME280;63820;65.654;21.944;2022-11-14T02:19:14;102370.06;;;-5.90;100.00
12676;BME280;63820;65.654;21.944;2022-11-14T02:21:58;102363.63;;;-5.84;100.00
12676;BME280;63820;65.654;21.944;2022-11-14T02:24:43;102361.88;;;-5.85;100.00
12676;BME280;63820;65.654;21.944;2022-11-14T02:27:29;102364.22;;;-5.89;100.00
12676;BME280;63820;65.654;21.944;2022-11-14T02:30:18;102372.59;;;-5.90;100.00
12676;BME280;63820;65.654;21.944;2022-11-14T02:33:02;102363.19;;;-5.93;100.00
12676;BME280;63820;65.654;21.944;2022-11-14T02:35:46;102359.69;;;-5.95;100.00
12676;BME280;63820;65.654;21.944;2022-11-14T02:38:30;102357.94;;;-5.96;100.00
12676;BME280;63820;65.654;21.944;2022-11-14T02:41:14;102355.41;;;-5.96;100.00
12676;BME280;63820;65.654;21.944;2022-11-14T02:43:58;102357.94;;;-5.96;100.00
12676;BME280;63820;65.654;21.944;2022-11-14T02:46:42;102345.34;;;-5.95;100.00
12676;BME280;63820;65.654;21.944;2022-11-14T02:49:27;102350.66;;;-5.90;100.00
12676;BME280;63820;65.654;21.944;2022-11-14T02:52:11;102351.53;;;-5.89;100.00
12676;BME280;63820;65.654;21.944;2022-11-14T02:54:55;102345.91;;;-5.84;100.00
12676;BME280;63820;65.654;21.944;2022-11-14T02:57:39;102345.19;;;-5.81;100.00
12676;BME280;63820;65.654;21.944;2022-11-14T03:00:23;102340.75;;;-5.85;100.00
12676;BME280;63820;65.654;21.944;2022-11-14T03:03:07;102347.19;;;-5.92;100.00
12676;BME280;63820;65.654;21.944;2022-11-14T03:05:51;102347.41;;;-6.04;100.00
12676;BME280;63820;65.654;21.944;2022-11-14T03:08:36;102342.44;;;-6.17;100.00
12676;BME280;63820;65.654;21.944;2022-11-14T03:11:20;102340.41;;;-6.24;100.00
12676;BME280;63820;65.654;21.944;2022-11-14T03:14:04;102343.25;;;-6.18;100.00
12676;BME280;63820;65.654;21.944;2022-11-14T03:16:48;102334.69;;;-6.20;100.00
12676;BME280;63820;65.654;21.944;2022-11-14T03:19:32;102340.72;;;-6.18;100.00
12676;BME280;63820;65.654;21.944;2022-11-14T03:22:16;102338.09;;;-6.19;100.00
12676;BME280;63820;65.654;21.944;2022-11-14T03:25:00;102337.78;;;-6.25;100.00
12676;BME280;63820;65.654;21.944;2022-11-14T03:27:44;102343.56;;;-6.28;100.00
12676;BME280;63820;65.654;21.944;2022-11-14T03:30:28;102344.50;;;-6.26;100.00
12676;BME280;63820;65.654;21.944;2022-11-14T03:33:12;102347.25;;;-6.21;100.00
12676;BME280;63820;65.654;21.944;2022-11-14T03:35:56;102359.09;;;-6.06;100.00
12676;BME280;63820;65.654;21.944;2022-11-14T03:38:42;102358.03;;;-5.95;100.00
12676;BME280;63820;65.654;21.944;2022-11-14T03:41:26;102346.84;;;-5.82;100.00
12676;BME280;63820;65.654;21.944;2022-11-14T03:44:10;102344.00;;;-5.72;100.00
12676;BME280;63820;65.654;21.944;2022-11-14T03:46:54;102347.75;;;-5.65;100.00
12676;BME280;63820;65.654;21.944;2022-11-14T03:49:38;102336.97;;;-5.61;100.00
12676;BME280;63820;65.654;21.944;2022-11-14T03:52:23;102338.16;;;-5.54;100.00
12676;BME280;63820;65.654;21.944;2022-11-14T03:55:09;102345.22;;;-5.49;100.00
12676;BME280;63820;65.654;21.944;2022-11-14T03:57:53;102343.72;;;-5.45;100.00
12676;BME280;63820;65.654;21.944;2022-11-14T04:00:38;102339.53;;;-5.45;100.00
12676;BME280;63820;65.654;21.944;2022-11-14T04:03:23;102335.56;;;-5.40;100.00
12676;BME280;63820;65.654;21.944;2022-11-14T04:06:07;102326.53;;;-5.35;100.00
12676;BME280;63820;65.654;21.944;2022-11-14T04:08:51;102315.66;;;-5.32;100.00
12676;BME280;63820;65.654;21.944;2022-11-14T04:11:35;102319.22;;;-5.29;100.00
12676;BME280;63820;65.654;21.944;2022-11-14T04:14:19;102315.03;;;-5.28;100.00
12676;BME280;63820;65.654;21.944;2022-11-14T04:17:03;102304.66;;;-5.33;100.00
12676;BME280;63820;65.654;21.944;2022-11-14T04:19:47;102321.59;;;-5.32;100.00
12676;BME280;63820;65.654;21.944;2022-11-14T04:22:31;102320.56;;;-5.35;100.00
12676;BME280;63820;65.654;21.944;2022-11-14T04:25:15;102323.19;;;-5.34;100.00
12676;BME280;63820;65.654;21.944;2022-11-14T04:27:59;102311.00;;;-5.41;100.00
12676;BME280;63820;65.654;21.944;2022-11-14T04:30:43;102305.59;;;-5.47;100.00
12676;BME280;63820;65.654;21.944;2022-11-14T04:33:28;102304.25;;;-5.56;100.00
12676;BME280;63820;65.654;21.944;2022-11-14T04:36:12;102300.31;;;-5.68;100.00
12676;BME280;63820;65.654;21.944;2022-11-14T04:38:56;102305.75;;;-5.76;100.00
12676;BME280;63820;65.654;21.944;2022-11-14T04:41:40;102303.69;;;-5.83;100.00
12676;BME280;63820;65.654;21.944;2022-11-14T04:44:24;102302.53;;;-5.90;100.00
12676;BME280;63820;65.654;21.944;2022-11-14T04:47:08;102302.28;;;-5.95;100.00
12676;BME280;63820;65.654;21.944;2022-11-14T04:49:52;102292.78;;;-5.99;100.00
12676;BME280;63820;65.654;21.944;2022-11-14T04:52:36;102294.38;;;-6.01;100.00
12676;BME280;63820;65.654;21.944;2022-11-14T04:55:20;102290.97;;;-6.01;100.00
12676;BME280;63820;65.654;21.944;2022-11-14T04:58:04;102295.44;;;-6.12;100.00
12676;BME280;63820;65.654;21.944;2022-11-14T05:00:48;102298.16;;;-6.09;100.00
12676;BME280;63820;65.654;21.944;2022-11-14T05:03:32;102301.31;;;-6.13;100.00
12676;BME280;63820;65.654;21.944;2022-11-14T05:06:16;102309.78;;;-6.12;100.00
12676;BME280;63820;65.654;21.944;2022-11-14T05:09:00;102304.00;;;-6.10;100.00
12676;BME280;63820;65.654;21.944;2022-11-14T05:11:44;102302.66;;;-6.03;100.00
12676;BME280;63820;65.654;21.944;2022-11-14T05:14:27;102305.44;;;-5.99;100.00
12676;BME280;63820;65.654;21.944;2022-11-14T05:17:11;102300.53;;;-5.96;100.00
12676;BME280;63820;65.654;21.944;2022-11-14T05:19:55;102302.59;;;-6.05;100.00
12676;BME280;63820;65.654;21.944;2022-11-14T05:22:39;102297.34;;;-6.08;100.00
12676;BME280;63820;65.654;21.944;2022-11-14T05:25:23;102293.69;;;-6.13;100.00
12676;BME280;63820;65.654;21.944;2022-11-14T05:28:07;102294.09;;;-6.21;100.00
12676;BME280;63820;65.654;21.944;2022-11-14T05:30:51;102292.50;;;-6.36;100.00
12676;BME280;63820;65.654;21.944;2022-11-14T05:33:35;102294.34;;;-6.48;100.00
12676;BME280;63820;65.654;21.944;2022-11-14T05:36:19;102290.44;;;-6.57;100.00
12676;BME280;63820;65.654;21.944;2022-11-14T05:39:04;102284.69;;;-6.70;100.00
12676;BME280;63820;65.654;21.944;2022-11-14T05:41:48;102293.53;;;-6.78;100.00
12676;BME280;63820;65.654;21.944;2022-11-14T05:44:31;102286.38;;;-6.85;100.00
12676;BME280;63820;65.654;21.944;2022-11-14T05:47:15;102283.94;;;-6.83;100.00
12676;BME280;63820;65.654;21.944;2022-11-14T05:49:59;102282.25;;;-6.83;100.00
12676;BME280;63820;65.654;21.944;2022-11-14T05:52:43;102276.00;;;-6.89;100.00
12676;BME280;63820;65.654;21.944;2022-11-14T05:55:27;102274.16;;;-6.92;100.00
12676;BME280;63820;65.654;21.944;2022-11-14T05:58:11;102269.28;;;-6.89;100.00
12676;BME280;63820;65.654;21.944;2022-11-14T06:03:47;102266.66;;;-6.76;100.00
12676;BME280;63820;65.654;21.944;2022-11-14T06:06:31;102270.19;;;-6.57;100.00
12676;BME280;63820;65.654;21.944;2022-11-14T06:09:16;102270.00;;;-6.46;100.00
12676;BME280;63820;65.654;21.944;2022-11-14T06:12:00;102270.09;;;-6.44;100.00
12676;BME280;63820;65.654;21.944;2022-11-14T06:14:48;102273.56;;;-6.42;100.00
12676;BME280;63820;65.654;21.944;2022-11-14T06:17:32;102268.50;;;-6.42;100.00
12676;BME280;63820;65.654;21.944;2022-11-14T06:20:16;102276.25;;;-6.39;100.00
12676;BME280;63820;65.654;21.944;2022-11-14T06:23:00;102270.75;;;-6.32;100.00
12676;BME280;63820;65.654;21.944;2022-11-14T06:25:44;102266.56;;;-6.32;100.00
12676;BME280;63820;65.654;21.944;2022-11-14T06:28:28;102261.72;;;-6.27;100.00
12676;BME280;63820;65.654;21.944;2022-11-14T06:31:12;102261.72;;;-6.27;100.00
12676;BME280;63820;65.654;21.944;2022-11-14T06:33:56;102261.50;;;-6.32;100.00
12676;BME280;63820;65.654;21.944;2022-11-14T06:36:40;102268.84;;;-6.36;100.00
12676;BME280;63820;65.654;21.944;2022-11-14T06:39:24;102257.25;;;-6.47;100.00
12676;BME280;63820;65.654;21.944;2022-11-14T06:42:08;102263.97;;;-6.48;100.00
12676;BME280;63820;65.654;21.944;2022-11-14T06:44:52;102257.16;;;-6.49;100.00
12676;BME280;63820;65.654;21.944;2022-11-14T06:47:36;102247.91;;;-6.48;100.00
12676;BME280;63820;65.654;21.944;2022-11-14T06:50:20;102252.44;;;-6.43;100.00
12676;BME280;63820;65.654;21.944;2022-11-14T06:53:04;102238.50;;;-6.51;100.00
12676;BME280;63820;65.654;21.944;2022-11-14T06:55:56;102237.53;;;-6.53;100.00
12676;BME280;63820;65.654;21.944;2022-11-14T06:58:43;102232.56;;;-6.51;100.00
12676;BME280;63820;65.654;21.944;2022-11-14T07:01:28;102229.09;;;-6.53;100.00
12676;BME280;63820;65.654;21.944;2022-11-14T07:04:12;102227.97;;;-6.58;100.00
12676;BME280;63820;65.654;21.944;2022-11-14T07:06:56;102224.38;;;-6.62;100.00
12676;BME280;63820;65.654;21.944;2022-11-14T07:09:40;102228.56;;;-6.63;100.00
12676;BME280;63820;65.654;21.944;2022-11-14T07:12:24;102218.63;;;-6.60;100.00
12676;BME280;63820;65.654;21.944;2022-11-14T07:15:09;102216.50;;;-6.52;100.00
12676;BME280;63820;65.654;21.944;2022-11-14T07:17:53;102222.59;;;-6.48;100.00
12676;BME280;63820;65.654;21.944;2022-11-14T07:20:37;102224.34;;;-6.47;100.00
12676;BME280;63820;65.654;21.944;2022-11-14T07:23:21;102216.59;;;-6.50;100.00
12676;BME280;63820;65.654;21.944;2022-11-14T07:26:07;102218.41;;;-6.48;100.00
12676;BME280;63820;65.654;21.944;2022-11-14T07:28:51;102206.63;;;-6.47;100.00
12676;BME280;63820;65.654;21.944;2022-11-14T07:31:35;102219.63;;;-6.41;100.00
12676;BME280;63820;65.654;21.944;2022-11-14T07:34:19;102224.84;;;-6.38;100.00
12676;BME280;63820;65.654;21.944;2022-11-14T07:37:03;102221.22;;;-6.27;100.00
12676;BME280;63820;65.654;21.944;2022-11-14T07:39:47;102216.16;;;-6.27;100.00
12676;BME280;63820;65.654;21.944;2022-11-14T07:42:31;102217.91;;;-6.26;100.00
12676;BME280;63820;65.654;21.944;2022-11-14T07:45:15;102221.31;;;-6.25;100.00
12676;BME280;63820;65.654;21.944;2022-11-14T07:48:01;102228.09;;;-6.24;100.00
12676;BME280;63820;65.654;21.944;2022-11-14T07:50:45;102228.97;;;-6.24;100.00
12676;BME280;63820;65.654;21.944;2022-11-14T07:53:30;102225.63;;;-6.23;100.00
12676;BME280;63820;65.654;21.944;2022-11-14T07:56:14;102228.47;;;-6.17;100.00
12676;BME280;63820;65.654;21.944;2022-11-14T07:59:00;102226.91;;;-6.15;100.00
12676;BME280;63820;65.654;21.944;2022-11-14T08:01:44;102231.19;;;-6.14;100.00
12676;BME280;63820;65.654;21.944;2022-11-14T08:04:28;102230.31;;;-6.14;100.00
12676;BME280;63820;65.654;21.944;2022-11-14T08:07:12;102229.34;;;-6.16;100.00
12676;BME280;63820;65.654;21.944;2022-11-14T08:09:56;102224.22;;;-6.18;100.00
12676;BME280;63820;65.654;21.944;2022-11-14T08:12:40;102218.44;;;-6.15;100.00
12676;BME280;63820;65.654;21.944;2022-11-14T08:15:25;102214.41;;;-6.12;100.00
12676;BME280;63820;65.654;21.944;2022-11-14T08:18:09;102208.31;;;-6.15;100.00
12676;BME280;63820;65.654;21.944;2022-11-14T08:20:53;102207.50;;;-6.14;100.00
12676;BME280;63820;65.654;21.944;2022-11-14T08:23:40;102209.50;;;-6.09;100.00
12676;BME280;63820;65.654;21.944;2022-11-14T08:26:24;102200.56;;;-6.02;100.00
12676;BME280;63820;65.654;21.944;2022-11-14T08:29:08;102200.00;;;-5.97;100.00
12676;BME280;63820;65.654;21.944;2022-11-14T08:31:52;102199.66;;;-5.86;100.00
12676;BME280;63820;65.654;21.944;2022-11-14T08:34:36;102201.38;;;-5.69;100.00
12676;BME280;63820;65.654;21.944;2022-11-14T08:37:20;102200.25;;;-5.58;100.00
12676;BME280;63820;65.654;21.944;2022-11-14T08:40:04;102195.22;;;-5.40;100.00
12676;BME280;63820;65.654;21.944;2022-11-14T08:42:49;102195.59;;;-5.33;100.00
12676;BME280;63820;65.654;21.944;2022-11-14T08:45:33;102184.38;;;-5.20;100.00
12676;BME280;63820;65.654;21.944;2022-11-14T08:48:17;102192.47;;;-5.09;100.00
12676;BME280;63820;65.654;21.944;2022-11-14T08:51:03;102192.41;;;-4.93;100.00
12676;BME280;63820;65.654;21.944;2022-11-14T08:53:47;102185.50;;;-4.78;100.00
12676;BME280;63820;65.654;21.944;2022-11-14T08:56:31;102192.16;;;-4.62;100.00
12676;BME280;63820;65.654;21.944;2022-11-14T08:59:16;102189.22;;;-4.34;100.00
12676;BME280;63820;65.654;21.944;2022-11-14T09:01:59;102192.69;;;-3.93;100.00
12676;BME280;63820;65.654;21.944;2022-11-14T09:04:43;102194.28;;;-2.50;100.00
12676;BME280;63820;65.654;21.944;2022-11-14T09:07:27;102196.13;;;-0.13;100.00
12676;BME280;63820;65.654;21.944;2022-11-14T09:10:11;102188.13;;;2.32;100.00
12676;BME280;63820;65.654;21.944;2022-11-14T09:12:56;102183.84;;;4.08;100.00
12676;BME280;63820;65.654;21.944;2022-11-14T09:15:41;102177.31;;;5.74;100.00
12676;BME280;63820;65.654;21.944;2022-11-14T09:18:25;102175.84;;;6.87;100.00
12676;BME280;63820;65.654;21.944;2022-11-14T09:21:09;102179.09;;;7.62;100.00
12676;BME280;63820;65.654;21.944;2022-11-14T09:23:54;102180.72;;;7.91;92.78
12676;BME280;63820;65.654;21.944;2022-11-14T09:26:38;102182.16;;;8.42;87.42
12676;BME280;63820;65.654;21.944;2022-11-14T09:29:22;102175.88;;;8.72;87.17
12676;BME280;63820;65.654;21.944;2022-11-14T09:32:06;102166.09;;;9.03;68.16
12676;BME280;63820;65.654;21.944;2022-11-14T09:34:50;102160.03;;;9.02;68.46
12676;BME280;63820;65.654;21.944;2022-11-14T09:37:34;102154.56;;;9.99;58.46
12676;BME280;63820;65.654;21.944;2022-11-14T09:40:18;102147.56;;;10.61;53.30
12676;BME280;63820;65.654;21.944;2022-11-14T09:43:22;102148.50;;;11.07;49.34
12676;BME280;63820;65.654;21.944;2022-11-14T09:46:23;102151.25;;;11.00;49.28
12676;BME280;63820;65.654;21.944;2022-11-14T09:52:34;102142.09;;;9.59;48.66
12676;BME280;63820;65.654;21.944;2022-11-14T09:55:22;102142.09;;;10.24;49.63
12676;BME280;63820;65.654;21.944;2022-11-14T09:58:12;102134.19;;;11.30;47.13
12676;BME280;63820;65.654;21.944;2022-11-14T10:01:05;102132.97;;;11.01;47.03
12676;BME280;63820;65.654;21.944;2022-11-14T10:04:27;102150.63;;;12.15;46.04
12676;BME280;63820;65.654;21.944;2022-11-14T10:20:08;102131.75;;;11.62;45.68
12676;BME280;63820;65.654;21.944;2022-11-14T10:26:31;102128.81;;;12.53;42.96
12676;BME280;63820;65.654;21.944;2022-11-14T10:29:40;102118.69;;;12.75;42.00
12676;BME280;63820;65.654;21.944;2022-11-14T10:36:43;102117.56;;;11.75;45.44
12676;BME280;63820;65.654;21.944;2022-11-14T10:42:14;102113.56;;;8.78;50.15
12676;BME280;63820;65.654;21.944;2022-11-14T10:45:12;102094.56;;;8.74;50.99
12676;BME280;63820;65.654;21.944;2022-11-14T10:48:02;102098.47;;;9.13;50.08
12676;BME280;63820;65.654;21.944;2022-11-14T10:50:56;102090.22;;;9.50;49.99
12676;BME280;63820;65.654;21.944;2022-11-14T10:56:51;102085.16;;;9.41;49.45
12676;BME280;63820;65.654;21.944;2022-11-14T10:59:36;102084.53;;;9.22;50.83
12676;BME280;63820;65.654;21.944;2022-11-14T11:02:20;102087.47;;;10.25;47.65
12676;BME280;63820;65.654;21.944;2022-11-14T11:05:14;102082.56;;;10.58;46.83
12676;BME280;63820;65.654;21.944;2022-11-14T11:07:59;102082.28;;;10.24;47.99
12676;BME280;63820;65.654;21.944;2022-11-14T11:11:02;102080.50;;;10.75;46.66
12676;BME280;63820;65.654;21.944;2022-11-14T11:14:14;102073.34;;;8.28;50.83
12676;BME280;63820;65.654;21.944;2022-11-14T11:20:21;102075.72;;;5.61;59.12
12676;BME280;63820;65.654;21.944;2022-11-14T11:31:54;102063.44;;;8.73;52.49
12676;BME280;63820;65.654;21.944;2022-11-14T11:34:38;102067.00;;;8.63;53.77
12676;BME280;63820;65.654;21.944;2022-11-14T11:37:29;102070.28;;;8.80;52.62
12676;BME280;63820;65.654;21.944;2022-11-14T11:40:21;102068.72;;;8.64;52.79
12676;BME280;63820;65.654;21.944;2022-11-14T11:46:08;102074.84;;;7.14;55.45
12676;BME280;63820;65.654;21.944;2022-11-14T11:49:05;102071.34;;;5.39;60.91
12676;BME280;63820;65.654;21.944;2022-11-14T11:51:54;102070.59;;;4.15;67.43
12676;BME280;63820;65.654;21.944;2022-11-14T11:54:49;102054.34;;;2.71;89.42
12676;BME280;63820;65.654;21.944;2022-11-14T11:57:38;102062.09;;;1.70;100.00
12676;BME280;63820;65.654;21.944;2022-11-14T12:00:25;102062.59;;;1.10;100.00
12676;BME280;63820;65.654;21.944;2022-11-14T12:03:13;102053.81;;;0.60;100.00
12676;BME280;63820;65.654;21.944;2022-11-14T12:06:14;102051.50;;;-0.02;100.00
12676;BME280;63820;65.654;21.944;2022-11-14T12:09:17;102047.13;;;-0.69;100.00
12676;BME280;63820;65.654;21.944;2022-11-14T12:12:07;102055.63;;;-0.98;100.00
12676;BME280;63820;65.654;21.944;2022-11-14T12:28:01;102029.25;;;-2.33;100.00
12676;BME280;63820;65.654;21.944;2022-11-14T12:30:51;102033.00;;;-2.47;100.00
12676;BME280;63820;65.654;21.944;2022-11-14T12:33:52;102031.00;;;-2.56;100.00
12676;BME280;63820;65.654;21.944;2022-11-14T12:36:42;102023.75;;;-2.69;100.00
12676;BME280;63820;65.654;21.944;2022-11-14T12:39:29;102032.72;;;-2.79;100.00
12676;BME280;63820;65.654;21.944;2022-11-14T12:42:18;102029.84;;;-2.88;100.00
12676;BME280;63820;65.654;21.944;2022-11-14T12:54:44;102012.91;;;-3.34;100.00
12676;BME280;63820;65.654;21.944;2022-11-14T12:57:40;102014.97;;;-3.46;100.00
12676;BME280;63820;65.654;21.944;2022-11-14T13:00:56;102018.88;;;-3.54;100.00
12676;BME280;63820;65.654;21.944;2022-11-14T13:04:05;102019.22;;;-3.67;100.00
12676;BME280;63820;65.654;21.944;2022-11-14T13:13:07;102032.84;;;-4.07;100.00
12676;BME280;63820;65.654;21.944;2022-11-14T13:16:31;102021.97;;;-4.25;100.00
12676;BME280;63820;65.654;21.944;2022-11-14T13:19:34;102023.19;;;-4.36;100.00
12676;BME280;63820;65.654;21.944;2022-11-14T13:22:40;102025.84;;;-4.33;100.00
12676;BME280;63820;65.654;21.944;2022-11-14T13:25:25;102034.94;;;-4.38;100.00
12676;BME280;63820;65.654;21.944;2022-11-14T13:31:23;102036.16;;;-4.49;100.00
12676;BME280;63820;65.654;21.944;2022-11-14T13:37:29;102028.00;;;-4.62;100.00
12676;BME280;63820;65.654;21.944;2022-11-14T13:52:34;102016.13;;;-4.82;100.00
12676;BME280;63820;65.654;21.944;2022-11-14T14:07:34;101971.09;;;-5.05;100.00
12676;BME280;63820;65.654;21.944;2022-11-14T14:19:13;101971.50;;;-5.35;100.00
12676;BME280;63820;65.654;21.944;2022-11-14T14:22:34;101960.06;;;-5.44;100.00
12676;BME280;63820;65.654;21.944;2022-11-14T14:28:47;101964.41;;;-5.42;100.00
12676;BME280;63820;65.654;21.944;2022-11-14T14:31:38;101964.56;;;-5.39;100.00
12676;BME280;63820;65.654;21.944;2022-11-14T14:34:24;101967.09;;;-5.39;100.00
12676;BME280;63820;65.654;21.944;2022-11-14T14:37:24;101970.50;;;-5.38;100.00
12676;BME280;63820;65.654;21.944;2022-11-14T14:40:24;101977.50;;;-5.33;100.00
12676;BME280;63820;65.654;21.944;2022-11-14T14:43:35;101971.22;;;-5.41;100.00
12676;BME280;63820;65.654;21.944;2022-11-14T14:46:31;101966.22;;;-5.39;100.00
12676;BME280;63820;65.654;21.944;2022-11-14T14:49:31;101979.97;;;-5.34;100.00
12676;BME280;63820;65.654;21.944;2022-11-14T14:52:35;101979.56;;;-5.43;100.00
12676;BME280;63820;65.654;21.944;2022-11-14T14:55:25;101985.78;;;-5.54;100.00
12676;BME280;63820;65.654;21.944;2022-11-14T15:01:14;101971.75;;;-5.66;100.00
12676;BME280;63820;65.654;21.944;2022-11-14T15:04:05;101966.63;;;-5.67;100.00
12676;BME280;63820;65.654;21.944;2022-11-14T15:06:50;101969.94;;;-5.68;100.00
12676;BME280;63820;65.654;21.944;2022-11-14T15:09:34;101977.19;;;-5.76;100.00
12676;BME280;63820;65.654;21.944;2022-11-14T15:12:18;101975.66;;;-5.72;100.00
12676;BME280;63820;65.654;21.944;2022-11-14T15:15:03;101972.84;;;-5.78;100.00
12676;BME280;63820;65.654;21.944;2022-11-14T15:17:53;101979.50;;;-5.80;100.00
12676;BME280;63820;65.654;21.944;2022-11-14T15:20:38;101975.31;;;-5.80;100.00
12676;BME280;63820;65.654;21.944;2022-11-14T15:23:21;101975.00;;;-5.86;100.00
12676;BME280;63820;65.654;21.944;2022-11-14T15:26:15;101976.41;;;-5.93;100.00
12676;BME280;63820;65.654;21.944;2022-11-14T15:29:30;101978.09;;;-5.93;100.00
12676;BME280;63820;65.654;21.944;2022-11-14T15:32:23;101973.59;;;-5.99;100.00
12676;BME280;63820;65.654;21.944;2022-11-14T15:38:27;101969.03;;;-6.06;100.00
12676;BME280;63820;65.654;21.944;2022-11-14T15:41:17;101966.72;;;-6.01;100.00
12676;BME280;63820;65.654;21.944;2022-11-14T15:44:02;101965.47;;;-6.09;100.00
12676;BME280;63820;65.654;21.944;2022-11-14T15:46:47;101967.50;;;-6.20;100.00
12676;BME280;63820;65.654;21.944;2022-11-14T15:49:31;101973.56;;;-6.16;100.00
12676;BME280;63820;65.654;21.944;2022-11-14T15:55:25;101971.75;;;-6.19;100.00
12676;BME280;63820;65.654;21.944;2022-11-14T15:58:10;101961.94;;;-6.31;100.00
12676;BME280;63820;65.654;21.944;2022-11-14T16:00:55;101954.19;;;-6.34;100.00
12676;BME280;63820;65.654;21.944;2022-11-14T16:03:43;101960.63;;;-6.40;100.00
12676;BME280;63820;65.654;21.944;2022-11-14T16:06:29;101946.38;;;-6.38;100.00
12676;BME280;63820;65.654;21.944;2022-11-14T16:09:18;101949.69;;;-6.39;100.00
12676;BME280;63820;65.654;21.944;2022-11-14T16:12:04;101955.72;;;-6.37;100.00
12676;BME280;63820;65.654;21.944;2022-11-14T16:14:48;101962.28;;;-6.23;100.00
12676;BME280;63820;65.654;21.944;2022-11-14T16:17:35;101962.97;;;-6.27;100.00
12676;BME280;63820;65.654;21.944;2022-11-14T16:20:27;101958.88;;;-6.41;100.00
12676;BME280;63820;65.654;21.944;2022-11-14T16:23:11;101960.97;;;-6.50;100.00
12676;BME280;63820;65.654;21.944;2022-11-14T16:25:59;101961.97;;;-6.47;100.00
12676;BME280;63820;65.654;21.944;2022-11-14T16:28:43;101957.22;;;-6.41;100.00